Samut Prakan, Thailand
Current Conditions -  °F | °C
As of 4:30 PM on Monday 24 Nov 2014 (Local Time) from VTBS Reporting Station
Clear Clear  
Wind Chill: 32°   Ceiling: Unl
Heat Index: 33°   Visibility: 6mi
Dew Point: 19°   Wind: 6mph
Humidity: 46%   Direction: 60°ENE
Pressure: 29.8"   Gusts: NA
Location:  13.61°N, 100.61°E
Report Text: VTBS 240930Z 06005KT CAVOK 32/19 Q1009 NOSIG
Loading
Personal Weather Stations






























Interactive Weather Map New forecast layout! Learn more

10-Day Weather Forecast

Advertisements
Track Severe Weather on mobile